createdAt,value
2023-08-17T00:02:06.058Z,20.78
2023-08-17T00:05:15.063Z,20.79
2023-08-17T00:08:16.871Z,20.90
2023-08-17T00:11:21.480Z,20.98
2023-08-17T00:14:23.393Z,21.10
2023-08-17T00:17:25.419Z,21.04
2023-08-17T00:20:29.804Z,20.39
2023-08-17T00:23:44.254Z,19.66
2023-08-17T00:26:45.987Z,19.30
2023-08-17T00:29:52.058Z,19.59
2023-08-17T00:32:53.788Z,19.47
2023-08-17T00:35:56.867Z,19.34
2023-08-17T00:38:58.786Z,19.43
2023-08-17T00:42:00.515Z,19.54
2023-08-17T00:45:08.153Z,19.87
2023-08-17T00:48:12.437Z,20.08
2023-08-17T00:51:18.641Z,20.21
2023-08-17T00:54:25.595Z,20.31
2023-08-17T00:57:29.411Z,20.36
2023-08-17T01:00:36.358Z,20.48
2023-08-17T01:03:40.725Z,20.55
2023-08-17T01:06:46.953Z,20.63
2023-08-17T01:09:51.689Z,20.67
2023-08-17T01:13:08.919Z,20.64
2023-08-17T01:16:17.052Z,20.70
2023-08-17T01:19:26.880Z,20.69
2023-08-17T01:22:36.466Z,20.75
2023-08-17T01:25:41.353Z,20.81
2023-08-17T01:28:45.986Z,20.86
2023-08-17T01:32:00.554Z,20.88
2023-08-17T01:35:10.513Z,20.82
2023-08-17T01:38:21.641Z,20.83
2023-08-17T01:41:26.723Z,20.86
2023-08-17T01:44:36.563Z,20.90
2023-08-17T01:47:43.939Z,20.81
2023-08-17T01:50:45.668Z,20.78
2023-08-17T01:53:49.577Z,20.70
2023-08-17T01:56:53.871Z,20.74
2023-08-17T02:00:00.448Z,20.74
2023-08-17T02:03:02.252Z,20.76
2023-08-17T02:06:06.673Z,20.72
2023-08-17T02:09:11.162Z,20.57
2023-08-17T02:12:14.260Z,20.33
2023-08-17T02:18:34.232Z,20.00
2023-08-17T02:21:37.565Z,20.14
2023-08-17T02:24:39.275Z,20.08
2023-08-17T02:27:48.320Z,20.12
2023-08-17T02:30:51.246Z,20.19
2023-08-17T02:33:57.245Z,20.27
2023-08-17T02:37:05.726Z,20.34
2023-08-17T02:40:08.562Z,20.39
2023-08-17T02:43:13.984Z,20.36
2023-08-17T02:46:15.861Z,20.35
2023-08-17T02:49:20.374Z,20.36
2023-08-17T02:52:23.381Z,20.36
2023-08-17T02:55:26.747Z,20.36
2023-08-17T02:58:32.835Z,20.34
2023-08-17T03:01:34.700Z,20.35
2023-08-17T03:04:37.685Z,20.36
2023-08-17T03:07:41.892Z,20.34
2023-08-17T03:10:49.357Z,20.35
2023-08-17T03:13:54.403Z,20.20
2023-08-17T03:16:56.191Z,20.23
2023-08-17T03:19:59.591Z,20.24
2023-08-17T03:23:01.391Z,20.25
2023-08-17T03:26:09.979Z,20.24
2023-08-17T03:29:14.300Z,20.22
2023-08-17T03:32:17.731Z,20.20
2023-08-17T03:35:19.639Z,20.15
2023-08-17T03:38:21.683Z,20.05
2023-08-17T03:41:23.505Z,20.05
2023-08-17T03:44:30.464Z,20.04
2023-08-17T03:47:33.906Z,20.06
2023-08-17T03:50:35.647Z,20.04
2023-08-17T03:53:37.363Z,20.06
2023-08-17T03:56:40.681Z,20.09
2023-08-17T03:59:53.800Z,20.07
2023-08-17T04:02:55.540Z,20.09
2023-08-17T04:05:57.262Z,20.07
2023-08-17T04:09:01.922Z,20.05
2023-08-17T04:12:04.046Z,20.03
2023-08-17T04:15:07.824Z,20.02
2023-08-17T04:18:09.605Z,20.03
2023-08-17T04:21:11.397Z,19.94
2023-08-17T04:24:13.116Z,19.87
2023-08-17T04:27:18.727Z,19.87
2023-08-17T04:30:22.039Z,19.78
2023-08-17T04:33:23.730Z,19.73
2023-08-17T04:36:25.459Z,19.44
2023-08-17T04:39:27.164Z,19.34
2023-08-17T04:42:30.864Z,19.02
2023-08-17T04:45:37.695Z,19.06
2023-08-17T04:48:41.102Z,19.24
2023-08-17T04:51:46.532Z,19.32
2023-08-17T04:54:49.540Z,19.44
2023-08-17T04:57:52.973Z,19.52
2023-08-17T05:00:56.117Z,19.57
2023-08-17T05:04:00.473Z,19.64
2023-08-17T05:07:06.979Z,19.62
2023-08-17T05:10:09.287Z,19.65
2023-08-17T05:13:13.210Z,19.70
2023-08-17T05:16:17.545Z,19.72
2023-08-17T05:19:23.304Z,19.76
2023-08-17T05:22:26.869Z,19.80
2023-08-17T05:25:28.616Z,19.83
2023-08-17T05:28:32.927Z,19.86
2023-08-17T05:31:38.074Z,19.77
2023-08-17T05:34:48.409Z,19.81
2023-08-17T05:37:51.344Z,19.84
2023-08-17T05:40:58.322Z,19.90
2023-08-17T05:44:01.251Z,19.90
2023-08-17T05:47:04.721Z,19.93
2023-08-17T05:50:07.545Z,19.93
2023-08-17T05:53:13.341Z,20.07
2023-08-17T05:56:15.058Z,19.86
2023-08-17T05:59:23.722Z,19.74
2023-08-17T06:02:31.167Z,19.76
2023-08-17T06:05:32.853Z,19.80
2023-08-17T06:08:37.356Z,19.75
2023-08-17T06:11:39.114Z,19.80
2023-08-17T06:14:43.204Z,19.77
2023-08-17T06:17:47.958Z,19.75
2023-08-17T06:20:49.805Z,19.77
2023-08-17T06:23:51.602Z,19.82
2023-08-17T06:26:56.168Z,19.85
2023-08-17T06:29:59.509Z,19.81
2023-08-17T06:33:04.030Z,19.81
2023-08-17T06:36:10.404Z,19.88
2023-08-17T06:39:12.112Z,19.93
2023-08-17T06:42:18.078Z,19.82
2023-08-17T06:45:25.989Z,19.87
2023-08-17T06:48:32.323Z,19.91
2023-08-17T06:51:34.064Z,19.95
2023-08-17T06:54:37.475Z,20.04
2023-08-17T06:57:41.590Z,20.09
2023-08-17T07:00:55.010Z,20.19
2023-08-17T07:03:58.091Z,20.18
2023-08-17T07:06:59.943Z,20.20
2023-08-17T07:10:03.525Z,20.21
2023-08-17T07:13:07.854Z,20.26
2023-08-17T07:16:09.638Z,20.31
2023-08-17T07:19:14.028Z,20.37
2023-08-17T07:22:15.766Z,20.40
2023-08-17T07:25:19.744Z,20.44
2023-08-17T07:28:21.555Z,20.53
2023-08-17T07:31:25.128Z,20.50
2023-08-17T07:34:34.124Z,20.57
2023-08-17T07:37:38.296Z,20.59
2023-08-17T07:40:41.482Z,20.57
2023-08-17T07:43:43.178Z,20.71
2023-08-17T07:46:50.837Z,20.78
2023-08-17T07:50:01.195Z,20.83
2023-08-17T07:53:05.952Z,20.84
2023-08-17T07:56:09.832Z,20.93
2023-08-17T07:59:11.582Z,21.02
2023-08-17T08:02:18.702Z,21.02
2023-08-17T08:05:27.628Z,21.14
2023-08-17T08:08:29.364Z,21.19
2023-08-17T08:11:31.091Z,21.27
2023-08-17T08:14:37.192Z,21.25
2023-08-17T08:17:44.697Z,21.25
2023-08-17T08:20:49.068Z,21.41
2023-08-17T08:24:04.986Z,21.45
2023-08-17T08:27:09.270Z,21.57
2023-08-17T08:30:11.388Z,21.57
2023-08-17T08:33:13.133Z,21.59
2023-08-17T08:36:18.112Z,21.68
2023-08-17T08:39:21.217Z,21.98
2023-08-17T08:42:24.140Z,22.04
2023-08-17T08:45:32.642Z,22.13
2023-08-17T08:48:40.593Z,22.14
2023-08-17T08:51:47.166Z,22.28
2023-08-17T08:54:57.790Z,22.36
2023-08-17T08:58:00.001Z,22.51
2023-08-17T09:01:09.235Z,22.58
2023-08-17T09:04:15.749Z,22.58
2023-08-17T09:07:23.494Z,22.55
2023-08-17T09:10:28.729Z,22.57
2023-08-17T09:13:31.186Z,22.46
2023-08-17T09:16:36.105Z,22.47
2023-08-17T09:19:42.855Z,22.58
2023-08-17T09:22:48.087Z,22.60
2023-08-17T09:25:52.050Z,22.66
2023-08-17T09:28:55.722Z,22.77
2023-08-17T09:31:57.796Z,22.78
2023-08-17T09:35:05.188Z,22.91
2023-08-17T09:38:13.289Z,22.96
2023-08-17T09:41:16.916Z,23.10
2023-08-17T09:44:24.266Z,23.32
2023-08-17T09:47:26.129Z,23.37
2023-08-17T09:50:29.326Z,23.42
2023-08-17T09:53:36.046Z,23.41
2023-08-17T09:56:37.913Z,23.56
2023-08-17T09:59:43.796Z,23.61
2023-08-17T10:02:47.601Z,23.67
2023-08-17T10:05:56.037Z,23.68
2023-08-17T10:09:00.309Z,23.88
2023-08-17T10:12:09.906Z,23.96
2023-08-17T10:15:19.437Z,23.95
2023-08-17T10:18:30.297Z,24.16
2023-08-17T10:21:45.561Z,24.38
2023-08-17T10:24:53.886Z,24.43
2023-08-17T10:28:00.038Z,24.58
2023-08-17T10:31:02.167Z,24.58
2023-08-17T10:34:06.279Z,24.65
2023-08-17T10:37:10.274Z,24.67
2023-08-17T10:40:16.816Z,24.66
2023-08-17T10:43:23.526Z,24.71
2023-08-17T10:46:35.518Z,24.77
2023-08-17T10:49:39.994Z,24.91
2023-08-17T10:55:58.316Z,24.96
2023-08-17T10:59:01.166Z,24.99
2023-08-17T11:02:03.004Z,25.13
2023-08-17T11:05:05.639Z,25.25
2023-08-17T11:08:20.806Z,25.23
2023-08-17T11:11:31.896Z,25.30
2023-08-17T11:15:01.474Z,25.46
2023-08-17T11:18:09.419Z,25.57
2023-08-17T11:21:12.159Z,25.60
2023-08-17T11:24:13.980Z,25.58
2023-08-17T11:27:17.181Z,25.60
2023-08-17T11:30:19.155Z,25.82
2023-08-17T11:33:21.369Z,25.94
2023-08-17T11:36:23.878Z,25.93
2023-08-17T11:39:25.612Z,25.93
2023-08-17T11:42:29.045Z,25.96
2023-08-17T11:45:31.088Z,26.08
2023-08-17T11:51:43.032Z,26.03
2023-08-17T11:54:45.252Z,26.16
2023-08-17T11:57:48.377Z,26.18
2023-08-17T12:00:50.430Z,26.02
2023-08-17T12:03:52.326Z,26.13
2023-08-17T12:06:55.147Z,26.28
2023-08-17T12:09:57.479Z,26.30
2023-08-17T12:13:00.766Z,26.32
2023-08-17T12:16:03.168Z,26.37
2023-08-17T12:19:05.798Z,26.38
2023-08-17T12:22:07.634Z,26.58
2023-08-17T12:25:10.457Z,26.73
2023-08-17T12:28:15.051Z,26.75
2023-08-17T12:31:22.509Z,26.69
2023-08-17T12:34:24.273Z,26.83
2023-08-17T12:37:25.978Z,27.01
2023-08-17T12:40:27.736Z,27.12
2023-08-17T12:43:30.849Z,26.97
2023-08-17T12:46:32.849Z,26.99
2023-08-17T12:49:39.558Z,27.05
2023-08-17T12:52:47.209Z,27.20
2023-08-17T12:55:49.385Z,27.15
2023-08-17T12:58:52.495Z,27.26
2023-08-17T13:01:54.198Z,27.36
2023-08-17T13:04:55.945Z,27.45
2023-08-17T13:07:57.792Z,27.44
2023-08-17T13:10:59.579Z,27.50
2023-08-17T13:14:02.644Z,27.57
2023-08-17T13:17:05.077Z,27.34
2023-08-17T13:20:08.045Z,27.48
2023-08-17T13:23:09.779Z,27.56
2023-08-17T13:26:11.710Z,27.60
2023-08-17T13:29:14.826Z,27.75
2023-08-17T13:32:16.617Z,27.85
2023-08-17T13:35:18.481Z,27.96
2023-08-17T13:38:20.193Z,27.92
2023-08-17T13:41:21.900Z,27.90
2023-08-17T13:44:25.156Z,28.11
2023-08-17T13:47:26.933Z,28.00
2023-08-17T13:50:28.673Z,27.83
2023-08-17T13:53:30.396Z,27.68
2023-08-17T13:56:32.132Z,27.80
2023-08-17T13:59:35.217Z,27.89
2023-08-17T14:02:37.492Z,28.03
2023-08-17T14:05:39.775Z,28.18
2023-08-17T14:08:41.561Z,28.21
2023-08-17T14:11:43.299Z,28.30
2023-08-17T14:14:46.395Z,28.32
2023-08-17T14:17:48.081Z,28.51
2023-08-17T14:20:49.834Z,28.49
2023-08-17T14:23:51.531Z,28.40
2023-08-17T14:26:53.224Z,28.51
2023-08-17T14:29:56.373Z,28.56
2023-08-17T14:33:01.583Z,28.66
2023-08-17T14:36:03.919Z,28.56
2023-08-17T14:39:05.870Z,28.70
2023-08-17T14:42:07.662Z,28.72
2023-08-17T14:45:12.543Z,28.69
2023-08-17T14:48:14.267Z,28.64
2023-08-17T14:51:15.985Z,28.65
2023-08-17T14:54:17.749Z,28.73
2023-08-17T14:57:19.493Z,28.95
2023-08-17T15:00:23.705Z,28.96
2023-08-17T15:03:25.671Z,29.10
2023-08-17T15:06:34.037Z,29.32
2023-08-17T15:09:37.086Z,29.47
2023-08-17T15:12:38.851Z,29.53
2023-08-17T15:15:42.012Z,29.53
2023-08-17T15:18:43.811Z,29.57
2023-08-17T15:21:45.874Z,29.57
2023-08-17T15:24:47.657Z,29.67
2023-08-17T15:27:49.401Z,29.75
2023-08-17T15:31:03.073Z,29.81
2023-08-17T15:34:05.228Z,29.94
2023-08-17T15:37:07.176Z,29.93
2023-08-17T15:40:09.482Z,30.10
2023-08-17T15:43:11.263Z,30.00
2023-08-17T15:46:14.469Z,30.10
2023-08-17T15:49:16.235Z,30.21
2023-08-17T15:52:18.308Z,30.19
2023-08-17T15:55:20.076Z,30.23
2023-08-17T15:58:21.820Z,30.29
2023-08-17T16:01:26.066Z,30.38
2023-08-17T16:04:28.115Z,30.35
2023-08-17T16:07:30.149Z,30.47
2023-08-17T16:10:35.152Z,30.59
2023-08-17T16:13:38.790Z,30.31
2023-08-17T16:16:42.256Z,30.33
2023-08-17T16:19:44.475Z,30.54
2023-08-17T16:22:46.271Z,30.68
2023-08-17T16:25:48.319Z,30.84
2023-08-17T16:28:51.362Z,30.87
2023-08-17T16:32:08.967Z,31.00
2023-08-17T16:35:12.053Z,31.07
2023-08-17T16:38:14.219Z,31.12
2023-08-17T16:41:16.254Z,31.22
2023-08-17T16:44:19.044Z,30.95
2023-08-17T16:47:23.734Z,30.99
2023-08-17T16:50:26.684Z,31.05
2023-08-17T16:53:35.630Z,31.23
2023-08-17T16:56:38.022Z,31.32
2023-08-17T16:59:41.231Z,31.24
2023-08-17T17:02:45.869Z,31.31
2023-08-17T17:05:49.269Z,31.14
2023-08-17T17:08:52.637Z,30.90
2023-08-17T17:11:55.928Z,30.49
2023-08-17T17:14:59.667Z,30.16
2023-08-17T17:18:04.475Z,29.91
2023-08-17T17:21:08.780Z,29.76
2023-08-17T17:24:12.101Z,29.80
2023-08-17T17:27:15.669Z,29.51
2023-08-17T17:30:18.899Z,29.18
2023-08-17T17:33:23.878Z,29.02
2023-08-17T17:36:27.312Z,28.88
2023-08-17T17:39:30.814Z,28.77
2023-08-17T17:42:34.251Z,28.77
2023-08-17T17:45:37.662Z,28.54
2023-08-17T17:48:43.024Z,28.22
2023-08-17T17:51:46.530Z,28.05
2023-08-17T17:54:50.091Z,27.85
2023-08-17T17:57:53.679Z,27.64
2023-08-17T18:00:57.227Z,27.71
2023-08-17T18:04:02.467Z,27.60
2023-08-17T18:07:06.087Z,27.53
2023-08-17T18:10:10.478Z,27.54
2023-08-17T18:13:13.955Z,27.22
2023-08-17T18:16:17.789Z,26.99
2023-08-17T18:19:23.490Z,27.00
2023-08-17T18:22:27.571Z,26.92
2023-08-17T18:25:31.301Z,27.00
2023-08-17T18:28:34.923Z,27.00
2023-08-17T18:31:38.672Z,26.96
2023-08-17T18:34:44.888Z,26.97
2023-08-17T18:37:48.491Z,26.97
2023-08-17T18:40:54.102Z,26.94
2023-08-17T18:43:58.189Z,26.96
2023-08-17T18:47:04.213Z,26.96
2023-08-17T18:50:11.353Z,26.93
2023-08-17T18:53:15.064Z,26.86
2023-08-17T18:56:18.798Z,26.71
2023-08-17T18:59:22.512Z,26.49
2023-08-17T19:02:26.301Z,26.39
2023-08-17T19:05:32.777Z,26.27
2023-08-17T19:08:36.406Z,26.27
2023-08-17T19:11:40.082Z,26.22
2023-08-17T19:14:44.512Z,26.01
2023-08-17T19:17:48.297Z,25.81
2023-08-17T19:20:53.767Z,25.62
2023-08-17T19:23:57.535Z,25.38
2023-08-17T19:27:01.434Z,25.38
2023-08-17T19:30:06.633Z,25.58
2023-08-17T19:33:11.374Z,25.68
2023-08-17T19:36:18.061Z,25.77
2023-08-17T19:39:21.711Z,25.77
2023-08-17T19:42:25.358Z,25.43
2023-08-17T19:45:29.000Z,25.16
2023-08-17T19:48:33.589Z,25.27
2023-08-17T19:51:39.111Z,25.29
2023-08-17T19:54:42.563Z,25.15
2023-08-17T19:57:45.933Z,25.08
2023-08-17T20:00:49.185Z,25.21
2023-08-17T20:03:54.079Z,25.24
2023-08-17T20:06:59.038Z,25.20
2023-08-17T20:10:02.826Z,24.99
2023-08-17T20:13:06.386Z,24.97
2023-08-17T20:16:09.807Z,25.01
2023-08-17T20:19:13.353Z,25.15
2023-08-17T20:22:18.114Z,25.09
2023-08-17T20:25:21.329Z,25.13
2023-08-17T20:28:24.939Z,25.22
2023-08-17T20:31:28.512Z,25.27
2023-08-17T20:34:31.928Z,25.27
2023-08-17T20:37:37.089Z,25.13
2023-08-17T20:40:40.574Z,25.08
2023-08-17T20:43:43.927Z,25.12
2023-08-17T20:46:47.098Z,25.13
2023-08-17T20:49:50.523Z,25.12
2023-08-17T20:52:55.430Z,25.15
2023-08-17T20:55:58.552Z,25.11
2023-08-17T20:59:01.395Z,25.16
2023-08-17T21:02:03.180Z,25.14
2023-08-17T21:05:05.400Z,25.11
2023-08-17T21:08:08.551Z,25.10
2023-08-17T21:11:10.874Z,24.92
2023-08-17T21:14:12.656Z,24.84
2023-08-17T21:17:14.450Z,24.76
2023-08-17T21:20:16.610Z,24.73
2023-08-17T21:23:19.652Z,24.72
2023-08-17T21:26:21.454Z,24.73
2023-08-17T21:29:23.154Z,24.61
2023-08-17T21:32:24.991Z,24.43
2023-08-17T21:35:27.259Z,23.75
2023-08-17T21:38:30.492Z,23.42
2023-08-17T21:41:32.282Z,22.71
2023-08-17T21:44:33.998Z,22.36
2023-08-17T21:47:35.781Z,21.96
2023-08-17T21:50:37.917Z,22.07
2023-08-17T21:53:41.107Z,21.87
2023-08-17T21:56:42.962Z,21.76
2023-08-17T21:59:44.893Z,21.68
2023-08-17T22:02:46.858Z,21.51
2023-08-17T22:05:48.669Z,21.27
2023-08-17T22:08:51.776Z,21.10
2023-08-17T22:11:53.483Z,21.07
2023-08-17T22:14:55.221Z,20.69
2023-08-17T22:17:57.088Z,20.61
2023-08-17T22:20:58.830Z,20.40
2023-08-17T22:24:01.931Z,20.31
2023-08-17T22:27:03.700Z,20.26
2023-08-17T22:30:06.631Z,20.08
2023-08-17T22:33:08.360Z,19.95
2023-08-17T22:36:10.109Z,19.91
2023-08-17T22:39:13.200Z,19.81
2023-08-17T22:42:14.946Z,19.70
2023-08-17T22:45:16.800Z,19.80
2023-08-17T22:48:18.580Z,19.84
2023-08-17T22:51:20.341Z,19.73
2023-08-17T22:54:23.530Z,19.80
2023-08-17T22:57:25.336Z,19.69
2023-08-17T23:00:27.270Z,19.72
2023-08-17T23:03:29.285Z,19.76
2023-08-17T23:06:31.046Z,19.74
2023-08-17T23:09:34.212Z,19.85
2023-08-17T23:12:35.924Z,19.98
2023-08-17T23:15:37.705Z,20.02
2023-08-17T23:18:39.428Z,20.07
2023-08-17T23:21:41.158Z,20.26
2023-08-17T23:24:44.274Z,20.34
2023-08-17T23:27:46.021Z,20.45
2023-08-17T23:30:47.793Z,20.55
2023-08-17T23:33:49.484Z,20.27
2023-08-17T23:36:51.206Z,20.05
2023-08-17T23:39:54.305Z,19.85
2023-08-17T23:42:56.042Z,20.03
2023-08-17T23:45:57.799Z,20.22
2023-08-17T23:48:59.536Z,20.45
2023-08-17T23:52:01.332Z,20.50
2023-08-17T23:55:05.045Z,20.58
2023-08-17T23:58:06.792Z,20.63
